createdAt,value
2018-08-23T00:01:37.441Z,20.00
2018-08-23T00:04:15.031Z,20.00
2018-08-23T00:06:57.989Z,20.00
2018-08-23T00:09:35.366Z,20.00
2018-08-23T00:12:12.368Z,19.90
2018-08-23T00:14:49.073Z,19.80
2018-08-23T00:17:27.491Z,19.70
2018-08-23T00:20:06.456Z,19.70
2018-08-23T00:22:42.531Z,19.70
2018-08-23T00:25:19.069Z,19.70
2018-08-23T00:27:55.545Z,19.60
2018-08-23T00:30:34.541Z,19.60
2018-08-23T00:33:10.861Z,19.50
2018-08-23T00:35:47.321Z,19.60
2018-08-23T00:38:23.227Z,19.50
2018-08-23T00:40:59.764Z,19.50
2018-08-23T00:43:36.704Z,19.50
2018-08-23T00:46:15.242Z,19.40
2018-08-23T00:48:52.225Z,19.40
2018-08-23T00:51:29.444Z,19.30
2018-08-23T00:54:07.300Z,19.30
2018-08-23T00:56:44.547Z,19.20
2018-08-23T00:59:20.946Z,19.20
2018-08-23T01:02:06.681Z,19.10
2018-08-23T01:04:47.876Z,19.10
2018-08-23T01:07:25.553Z,19.10
2018-08-23T01:10:01.881Z,19.00
2018-08-23T01:12:48.953Z,19.00
2018-08-23T01:15:25.319Z,19.00
2018-08-23T01:18:14.557Z,18.90
2018-08-23T01:20:53.718Z,18.90
2018-08-23T01:23:30.757Z,18.80
2018-08-23T01:26:09.077Z,18.90
2018-08-23T01:28:46.884Z,18.90
2018-08-23T01:31:30.304Z,18.90
2018-08-23T01:34:07.728Z,18.90
2018-08-23T01:36:43.647Z,18.80
2018-08-23T01:39:20.219Z,18.90
2018-08-23T01:41:59.248Z,19.00
2018-08-23T01:44:40.910Z,18.90
2018-08-23T01:47:17.517Z,19.00
2018-08-23T01:49:55.163Z,19.10
2018-08-23T01:52:31.947Z,19.00
2018-08-23T01:55:09.304Z,18.90
2018-08-23T01:57:46.461Z,18.80
2018-08-23T02:00:25.212Z,18.80
2018-08-23T02:03:03.356Z,18.80
2018-08-23T02:05:43.028Z,18.70
2018-08-23T02:08:20.219Z,18.70
2018-08-23T02:10:56.574Z,18.70
2018-08-23T02:13:34.366Z,18.60
2018-08-23T02:16:14.496Z,18.70
2018-08-23T02:18:51.955Z,18.60
2018-08-23T02:21:29.942Z,18.50
2018-08-23T02:24:06.556Z,18.50
2018-08-23T02:26:42.548Z,18.40
2018-08-23T02:29:35.095Z,18.30
2018-08-23T02:32:11.589Z,18.30
2018-08-23T02:34:48.957Z,18.30
2018-08-23T02:37:25.156Z,18.40
2018-08-23T02:40:02.230Z,18.50
2018-08-23T02:42:38.155Z,18.50
2018-08-23T02:45:15.041Z,18.40
2018-08-23T02:47:51.098Z,18.40
2018-08-23T02:50:27.664Z,18.30
2018-08-23T02:53:22.596Z,18.40
2018-08-23T02:56:05.081Z,18.40
2018-08-23T02:58:59.761Z,18.40
2018-08-23T03:01:40.330Z,18.30
2018-08-23T03:04:21.317Z,18.30
2018-08-23T03:07:02.498Z,18.30
2018-08-23T03:09:43.285Z,18.30
2018-08-23T03:12:21.248Z,18.30
2018-08-23T03:14:56.840Z,18.30
2018-08-23T03:17:40.785Z,18.30
2018-08-23T03:20:18.349Z,18.30
2018-08-23T03:22:55.310Z,18.30
2018-08-23T03:25:32.106Z,18.30
2018-08-23T03:28:08.911Z,18.30
2018-08-23T03:30:49.550Z,18.30
2018-08-23T03:33:27.325Z,18.30
2018-08-23T03:36:03.256Z,18.30
2018-08-23T03:38:39.244Z,18.20
2018-08-23T03:41:16.018Z,18.10
2018-08-23T03:43:53.780Z,18.10
2018-08-23T03:46:31.515Z,18.10
2018-08-23T03:49:07.435Z,18.10
2018-08-23T03:51:43.301Z,18.10
2018-08-23T03:54:18.904Z,18.00
2018-08-23T03:57:15.709Z,17.90
2018-08-23T03:59:53.133Z,17.90
2018-08-23T04:02:30.195Z,17.90
2018-08-23T04:05:24.755Z,17.90
2018-08-23T04:08:01.387Z,18.00
2018-08-23T04:10:38.321Z,18.00
2018-08-23T04:13:14.586Z,18.00
2018-08-23T04:15:50.630Z,18.10
2018-08-23T04:18:27.159Z,18.00
2018-08-23T04:21:03.416Z,18.00
2018-08-23T04:23:39.589Z,18.10
2018-08-23T04:26:16.654Z,18.10
2018-08-23T04:28:52.372Z,18.10
2018-08-23T04:31:28.234Z,18.00
2018-08-23T04:34:06.561Z,18.00
2018-08-23T04:36:42.301Z,18.00
2018-08-23T04:39:18.381Z,18.00
2018-08-23T04:42:00.959Z,18.10
2018-08-23T04:44:42.700Z,18.00
2018-08-23T04:47:20.564Z,18.00
2018-08-23T04:49:56.908Z,18.20
2018-08-23T04:52:33.626Z,18.50
2018-08-23T04:55:10.429Z,18.50
2018-08-23T04:57:46.744Z,18.60
2018-08-23T05:00:24.274Z,18.60
2018-08-23T05:03:00.833Z,18.60
2018-08-23T05:05:37.376Z,18.60
2018-08-23T05:08:13.116Z,18.60
2018-08-23T05:10:49.322Z,18.50
2018-08-23T05:13:25.756Z,18.60
2018-08-23T05:16:01.711Z,18.70
2018-08-23T05:18:37.803Z,18.80
2018-08-23T05:21:14.367Z,19.00
2018-08-23T05:23:52.935Z,19.10
2018-08-23T05:26:29.738Z,19.10
2018-08-23T05:29:07.705Z,19.20
2018-08-23T05:31:45.052Z,19.30
2018-08-23T05:34:21.260Z,19.30
2018-08-23T05:36:57.475Z,19.50
2018-08-23T05:39:49.428Z,19.50
2018-08-23T05:42:49.767Z,19.60
2018-08-23T05:45:35.543Z,19.70
2018-08-23T05:48:32.172Z,19.80
2018-08-23T05:51:11.284Z,19.70
2018-08-23T05:53:50.795Z,19.90
2018-08-23T05:56:27.121Z,20.00
2018-08-23T05:59:08.233Z,20.20
2018-08-23T06:01:46.790Z,20.50
2018-08-23T06:04:40.324Z,20.80
2018-08-23T06:07:18.341Z,20.90
2018-08-23T06:09:55.851Z,20.90
2018-08-23T06:12:33.638Z,20.90
2018-08-23T06:15:09.926Z,21.00
2018-08-23T06:17:47.161Z,21.10
2018-08-23T06:20:24.660Z,21.20
2018-08-23T06:23:01.922Z,21.20
2018-08-23T06:25:38.235Z,21.30
2018-08-23T06:28:23.101Z,21.40
2018-08-23T06:31:01.701Z,21.50
2018-08-23T06:33:44.179Z,21.70
2018-08-23T06:36:22.264Z,21.80
2018-08-23T06:39:00.832Z,22.00
2018-08-23T06:41:38.329Z,22.20
2018-08-23T06:44:15.995Z,22.30
2018-08-23T06:46:53.019Z,22.40
2018-08-23T06:49:28.950Z,22.80
2018-08-23T06:52:15.093Z,23.20
2018-08-23T06:54:51.844Z,23.40
2018-08-23T06:57:43.517Z,23.50
2018-08-23T07:00:25.464Z,23.70
2018-08-23T07:03:04.159Z,23.80
2018-08-23T07:05:42.340Z,23.70
2018-08-23T07:08:19.668Z,23.70
2018-08-23T07:11:12.328Z,24.00
2018-08-23T07:14:27.657Z,24.40
2018-08-23T07:17:17.211Z,24.60
2018-08-23T07:19:54.859Z,24.70
2018-08-23T07:22:35.075Z,24.80
2018-08-23T07:25:15.789Z,25.00
2018-08-23T07:27:52.792Z,25.20
2018-08-23T07:30:29.835Z,25.40
2018-08-23T07:33:07.621Z,25.60
2018-08-23T07:35:46.833Z,25.80
2018-08-23T07:38:24.605Z,26.00
2018-08-23T07:41:01.912Z,26.20
2018-08-23T07:43:39.753Z,26.40
2018-08-23T07:46:16.777Z,26.40
2018-08-23T07:48:53.643Z,26.70
2018-08-23T07:51:31.842Z,27.50
2018-08-23T07:54:12.916Z,29.50
2018-08-23T07:56:50.784Z,32.00
2018-08-23T07:59:29.675Z,34.30
2018-08-23T08:02:13.095Z,35.80
2018-08-23T08:04:51.507Z,36.80
2018-08-23T08:07:31.038Z,37.60
2018-08-23T08:10:13.798Z,38.80
2018-08-23T08:12:51.816Z,39.20
2018-08-23T08:15:30.574Z,39.30
2018-08-23T08:18:16.745Z,39.70
2018-08-23T08:21:01.734Z,40.00
2018-08-23T08:23:39.108Z,40.20
2018-08-23T08:26:18.216Z,40.70
2018-08-23T08:28:55.320Z,40.00
2018-08-23T08:31:32.850Z,40.20
2018-08-23T08:34:11.101Z,40.40
2018-08-23T08:36:47.716Z,41.40
2018-08-23T08:39:24.877Z,41.00
2018-08-23T08:42:01.549Z,41.40
2018-08-23T08:44:37.885Z,40.90
2018-08-23T08:47:16.250Z,41.40
2018-08-23T08:49:52.823Z,41.80
2018-08-23T08:52:30.585Z,41.80
2018-08-23T08:55:11.011Z,41.50
2018-08-23T08:57:48.344Z,41.60
2018-08-23T09:00:25.616Z,41.90
2018-08-23T09:03:02.342Z,41.80
2018-08-23T09:05:39.369Z,42.00
2018-08-23T09:08:17.256Z,42.60
2018-08-23T09:10:53.889Z,43.50
2018-08-23T09:13:37.201Z,42.80
2018-08-23T09:16:20.057Z,42.10
2018-08-23T09:19:01.699Z,42.00
2018-08-23T09:21:38.002Z,42.40
2018-08-23T09:24:27.539Z,43.30
2018-08-23T09:27:04.518Z,44.00
2018-08-23T09:29:42.255Z,43.60
2018-08-23T09:32:26.137Z,42.80
2018-08-23T09:35:05.049Z,42.60
2018-08-23T09:37:41.826Z,42.90
2018-08-23T09:40:19.314Z,42.60
2018-08-23T09:42:56.382Z,42.80
2018-08-23T09:45:36.385Z,42.50
2018-08-23T09:48:14.265Z,42.80
2018-08-23T09:50:52.402Z,42.70
2018-08-23T09:53:29.268Z,43.50
2018-08-23T09:56:06.696Z,44.10
2018-08-23T09:58:43.908Z,44.00
2018-08-23T10:01:26.953Z,44.60
2018-08-23T10:04:10.424Z,45.10
2018-08-23T10:07:00.812Z,45.50
2018-08-23T10:09:44.088Z,44.50
2018-08-23T10:12:27.375Z,43.50
2018-08-23T10:15:12.109Z,43.00
2018-08-23T10:17:55.632Z,43.60
2018-08-23T10:20:46.264Z,44.40
2018-08-23T10:23:25.255Z,44.40
2018-08-23T10:26:05.740Z,44.70
2018-08-23T10:28:48.512Z,43.80
2018-08-23T10:31:25.857Z,43.90
2018-08-23T10:34:03.496Z,44.50
2018-08-23T10:36:40.113Z,45.00
2018-08-23T10:39:16.944Z,45.40
2018-08-23T10:41:53.265Z,44.90
2018-08-23T10:44:29.821Z,44.30
2018-08-23T10:47:07.112Z,44.60
2018-08-23T10:49:44.514Z,45.20
2018-08-23T10:52:22.009Z,46.90
2018-08-23T10:55:00.522Z,47.00
2018-08-23T10:57:38.733Z,45.90
2018-08-23T11:00:17.043Z,44.70
2018-08-23T11:02:54.494Z,44.00
2018-08-23T11:05:32.399Z,43.90
2018-08-23T11:08:14.399Z,44.30
2018-08-23T11:10:58.286Z,44.40
2018-08-23T11:13:42.391Z,44.90
2018-08-23T11:16:26.080Z,45.90
2018-08-23T11:19:08.013Z,45.40
2018-08-23T11:21:45.346Z,44.50
2018-08-23T11:24:23.061Z,44.80
2018-08-23T11:27:01.006Z,45.20
2018-08-23T11:29:39.474Z,46.00
2018-08-23T11:32:16.198Z,46.90
2018-08-23T11:34:52.971Z,47.00
2018-08-23T11:37:30.212Z,47.00
2018-08-23T11:40:06.958Z,47.40
2018-08-23T11:42:44.768Z,47.10
2018-08-23T11:45:23.610Z,46.20
2018-08-23T11:48:02.030Z,46.00
2018-08-23T11:50:39.280Z,45.60
2018-08-23T11:53:17.194Z,45.50
2018-08-23T11:55:55.175Z,45.80
2018-08-23T11:58:32.698Z,44.70
2018-08-23T12:01:11.696Z,45.00
2018-08-23T12:03:49.986Z,44.10
2018-08-23T12:06:26.642Z,42.60
2018-08-23T12:09:04.830Z,42.60
2018-08-23T12:11:41.359Z,42.90
2018-08-23T12:14:19.712Z,43.80
2018-08-23T12:16:57.409Z,44.70
2018-08-23T12:19:34.427Z,44.70
2018-08-23T12:22:10.247Z,44.60
2018-08-23T12:24:47.770Z,45.30
2018-08-23T12:27:25.208Z,45.40
2018-08-23T12:30:05.457Z,45.30
2018-08-23T12:32:42.893Z,45.40
2018-08-23T12:35:20.833Z,44.80
2018-08-23T12:38:04.284Z,44.10
2018-08-23T12:40:46.794Z,43.80
2018-08-23T12:43:28.754Z,43.60
2018-08-23T12:46:07.207Z,43.70
2018-08-23T12:48:44.187Z,44.00
2018-08-23T12:51:20.722Z,43.30
2018-08-23T12:53:58.699Z,43.70
2018-08-23T12:56:37.284Z,43.50
2018-08-23T12:59:13.949Z,43.10
2018-08-23T13:01:51.559Z,42.80
2018-08-23T13:04:28.916Z,42.60
2018-08-23T13:07:05.829Z,42.10
2018-08-23T13:09:43.856Z,42.10
2018-08-23T13:12:21.401Z,42.30
2018-08-23T13:14:58.986Z,42.10
2018-08-23T13:17:37.563Z,41.60
2018-08-23T13:20:15.770Z,40.90
2018-08-23T13:22:53.674Z,39.50
2018-08-23T13:25:31.074Z,39.30
2018-08-23T13:28:08.948Z,39.80
2018-08-23T13:30:46.585Z,39.30
2018-08-23T13:33:24.409Z,39.00
2018-08-23T13:36:01.386Z,39.80
2018-08-23T13:38:38.708Z,40.80
2018-08-23T13:41:15.746Z,41.30
2018-08-23T13:43:52.888Z,40.90
2018-08-23T13:46:31.634Z,40.80
2018-08-23T13:49:10.566Z,40.60
2018-08-23T13:51:48.059Z,41.00
2018-08-23T13:54:25.820Z,41.00
2018-08-23T13:57:02.613Z,40.00
2018-08-23T13:59:40.061Z,38.50
2018-08-23T14:02:17.379Z,37.70
2018-08-23T14:04:54.298Z,38.40
2018-08-23T14:07:33.563Z,38.90
2018-08-23T14:10:11.522Z,39.00
2018-08-23T14:12:49.704Z,38.50
2018-08-23T14:15:33.316Z,38.40
2018-08-23T14:18:11.410Z,37.70
2018-08-23T14:20:48.659Z,36.60
2018-08-23T14:23:26.646Z,35.70
2018-08-23T14:26:04.792Z,35.50
2018-08-23T14:28:41.989Z,35.60
2018-08-23T14:31:19.607Z,35.60
2018-08-23T14:33:57.009Z,35.30
2018-08-23T14:36:37.546Z,34.90
2018-08-23T14:39:15.404Z,34.70
2018-08-23T14:41:53.841Z,34.60
2018-08-23T14:44:31.620Z,34.60
2018-08-23T14:47:14.378Z,34.60
2018-08-23T14:49:50.312Z,34.70
2018-08-23T14:52:27.000Z,34.60
2018-08-23T14:55:04.780Z,34.40
2018-08-23T14:57:41.092Z,34.30
2018-08-23T15:00:18.312Z,34.10
2018-08-23T15:02:56.254Z,33.90
2018-08-23T15:05:34.113Z,33.90
2018-08-23T15:08:11.135Z,33.70
2018-08-23T15:10:48.358Z,33.60
2018-08-23T15:13:25.590Z,33.70
2018-08-23T15:16:02.653Z,33.70
2018-08-23T15:18:39.841Z,33.50
2018-08-23T15:21:18.256Z,33.40
2018-08-23T15:23:55.376Z,33.40
2018-08-23T15:26:32.455Z,33.30
2018-08-23T15:29:13.567Z,33.20
2018-08-23T15:31:51.196Z,33.00
2018-08-23T15:34:28.740Z,32.80
2018-08-23T15:37:07.401Z,32.60
2018-08-23T15:39:44.664Z,32.50
2018-08-23T15:42:22.217Z,32.20
2018-08-23T15:44:59.900Z,32.00
2018-08-23T15:47:38.071Z,31.80
2018-08-23T15:50:16.190Z,31.10
2018-08-23T15:52:55.730Z,30.60
2018-08-23T15:55:35.293Z,30.00
2018-08-23T15:58:12.014Z,29.20
2018-08-23T16:00:50.005Z,28.40
2018-08-23T16:03:27.273Z,27.90
2018-08-23T16:06:06.905Z,27.50
2018-08-23T16:08:49.263Z,27.20
2018-08-23T16:11:26.700Z,26.90
2018-08-23T16:14:04.214Z,26.70
2018-08-23T16:16:48.371Z,26.70
2018-08-23T16:19:31.921Z,26.70
2018-08-23T16:22:12.379Z,26.60
2018-08-23T16:24:53.242Z,26.50
2018-08-23T16:27:34.253Z,26.60
2018-08-23T16:30:14.866Z,26.70
2018-08-23T16:32:56.377Z,26.80
2018-08-23T16:35:37.018Z,26.90
2018-08-23T16:38:17.433Z,27.00
2018-08-23T16:40:58.576Z,26.90
2018-08-23T16:43:39.667Z,27.10
2018-08-23T16:46:20.972Z,27.10
2018-08-23T16:49:01.417Z,26.80
2018-08-23T16:51:42.697Z,26.80
2018-08-23T16:54:23.365Z,26.80
2018-08-23T16:57:04.111Z,26.80
2018-08-23T16:59:44.552Z,26.60
2018-08-23T17:02:25.486Z,26.60
2018-08-23T17:05:06.537Z,26.60
2018-08-23T17:07:47.169Z,26.60
2018-08-23T17:10:27.510Z,26.50
2018-08-23T17:13:07.944Z,26.50
2018-08-23T17:15:54.056Z,26.50
2018-08-23T17:18:34.616Z,26.40
2018-08-23T17:21:15.468Z,26.40
2018-08-23T17:23:56.001Z,26.40
2018-08-23T17:26:36.713Z,26.30
2018-08-23T17:29:17.192Z,26.30
2018-08-23T17:31:58.344Z,26.30
2018-08-23T17:34:38.706Z,26.30
2018-08-23T17:37:19.567Z,26.30
2018-08-23T17:40:00.521Z,26.20
2018-08-23T17:42:43.962Z,26.20
2018-08-23T17:45:24.623Z,26.10
2018-08-23T17:48:05.332Z,26.10
2018-08-23T17:50:46.018Z,26.10
2018-08-23T17:53:26.940Z,26.10
2018-08-23T17:56:07.337Z,26.00
2018-08-23T17:58:48.714Z,26.00
2018-08-23T18:01:30.024Z,26.00
2018-08-23T18:04:11.118Z,25.90
2018-08-23T18:06:51.549Z,25.80
2018-08-23T18:09:32.248Z,25.70
2018-08-23T18:12:13.199Z,25.60
2018-08-23T18:14:53.797Z,25.60
2018-08-23T18:17:34.257Z,25.50
2018-08-23T18:20:15.301Z,25.50
2018-08-23T18:22:56.028Z,25.50
2018-08-23T18:25:37.111Z,25.50
2018-08-23T18:28:19.326Z,25.50
2018-08-23T18:31:00.198Z,25.50
2018-08-23T18:33:41.336Z,25.40
2018-08-23T18:36:21.904Z,25.40
2018-08-23T18:39:03.278Z,25.40
2018-08-23T18:41:44.137Z,25.40
2018-08-23T18:44:24.981Z,25.50
2018-08-23T18:47:05.845Z,25.50
2018-08-23T18:49:46.651Z,25.50
2018-08-23T18:52:27.168Z,25.40
2018-08-23T18:55:07.697Z,25.40
2018-08-23T18:57:48.512Z,25.30
2018-08-23T19:00:29.325Z,25.30
2018-08-23T19:03:10.140Z,25.20
2018-08-23T19:05:51.220Z,25.30
2018-08-23T19:08:32.030Z,25.40
2018-08-23T19:11:12.952Z,25.40
2018-08-23T19:13:53.486Z,25.40
2018-08-23T19:16:39.721Z,25.30
2018-08-23T19:19:20.337Z,25.30
2018-08-23T19:22:01.000Z,25.20
2018-08-23T19:24:41.900Z,25.20
2018-08-23T19:27:22.643Z,25.20
2018-08-23T19:30:03.094Z,25.10
2018-08-23T19:32:43.925Z,25.20
2018-08-23T19:35:24.672Z,25.10
2018-08-23T19:38:05.877Z,25.20
2018-08-23T19:40:46.326Z,25.10
2018-08-23T19:43:27.043Z,25.10
2018-08-23T19:46:13.432Z,25.10
2018-08-23T19:48:59.438Z,25.00
2018-08-23T19:51:40.082Z,24.80
2018-08-23T19:54:20.643Z,24.80
2018-08-23T19:57:01.412Z,24.70
2018-08-23T19:59:42.250Z,24.70
2018-08-23T20:02:22.992Z,24.70
2018-08-23T20:05:03.808Z,24.70
2018-08-23T20:07:45.355Z,24.70
2018-08-23T20:10:25.961Z,24.70
2018-08-23T20:13:06.887Z,24.80
2018-08-23T20:15:47.792Z,24.90
2018-08-23T20:18:28.329Z,24.90
2018-08-23T20:21:08.997Z,24.90
2018-08-23T20:23:49.579Z,24.90
2018-08-23T20:26:31.207Z,24.90
2018-08-23T20:29:11.719Z,24.90
2018-08-23T20:31:52.682Z,24.90
2018-08-23T20:34:33.624Z,24.90
2018-08-23T20:37:14.411Z,24.70
2018-08-23T20:39:55.579Z,24.70
2018-08-23T20:42:36.130Z,24.70
2018-08-23T20:45:18.000Z,24.70
2018-08-23T20:47:59.137Z,24.80
2018-08-23T20:50:40.259Z,24.90
2018-08-23T20:53:21.990Z,24.90
2018-08-23T20:56:03.148Z,24.80
2018-08-23T20:58:44.258Z,24.70
2018-08-23T21:01:25.290Z,24.70
2018-08-23T21:04:06.368Z,24.70
2018-08-23T21:06:47.168Z,24.60
2018-08-23T21:09:27.956Z,24.70
2018-08-23T21:12:08.468Z,24.70
2018-08-23T21:14:49.487Z,24.70
2018-08-23T21:17:30.818Z,24.60
2018-08-23T21:20:11.875Z,24.60
2018-08-23T21:22:52.798Z,24.60
2018-08-23T21:25:33.570Z,24.60
2018-08-23T21:28:14.300Z,24.60
2018-08-23T21:30:55.903Z,24.60
2018-08-23T21:33:36.516Z,24.70
2018-08-23T21:36:17.076Z,24.60
2018-08-23T21:38:57.532Z,24.60
2018-08-23T21:41:38.235Z,24.60
2018-08-23T21:44:18.866Z,24.60
2018-08-23T21:46:59.512Z,24.50
2018-08-23T21:49:40.072Z,24.60
2018-08-23T21:52:20.867Z,24.80
2018-08-23T21:55:01.922Z,24.80
2018-08-23T21:57:42.920Z,24.70
2018-08-23T22:00:23.711Z,24.60
2018-08-23T22:03:04.713Z,24.60
2018-08-23T22:05:45.871Z,24.50
2018-08-23T22:08:26.494Z,24.40
2018-08-23T22:11:07.388Z,24.40
2018-08-23T22:13:48.169Z,24.40
2018-08-23T22:16:29.358Z,24.30
2018-08-23T22:19:09.740Z,24.40
2018-08-23T22:21:50.580Z,24.40
2018-08-23T22:24:31.614Z,24.40
2018-08-23T22:27:12.142Z,24.50
2018-08-23T22:29:53.070Z,24.50
2018-08-23T22:32:33.500Z,24.40
2018-08-23T22:35:14.437Z,24.40
2018-08-23T22:37:55.016Z,24.40
2018-08-23T22:40:37.386Z,24.40
2018-08-23T22:43:17.920Z,24.30
2018-08-23T22:45:59.565Z,24.30
2018-08-23T22:48:40.135Z,24.30
2018-08-23T22:51:20.692Z,24.20
2018-08-23T22:54:01.420Z,24.10
2018-08-23T22:56:42.247Z,24.00
2018-08-23T22:59:22.915Z,23.80
2018-08-23T23:02:04.114Z,23.60
2018-08-23T23:04:44.965Z,23.50
2018-08-23T23:07:25.935Z,23.40
2018-08-23T23:10:07.398Z,23.40
2018-08-23T23:12:48.382Z,23.30
2018-08-23T23:15:28.817Z,23.30
2018-08-23T23:18:09.513Z,23.30
2018-08-23T23:20:50.074Z,23.40
2018-08-23T23:23:30.841Z,23.40
2018-08-23T23:26:11.384Z,23.40
2018-08-23T23:28:51.949Z,23.40
2018-08-23T23:31:32.609Z,23.40
2018-08-23T23:34:13.200Z,23.60
2018-08-23T23:36:53.976Z,23.60
2018-08-23T23:39:34.858Z,23.50
2018-08-23T23:42:15.605Z,23.40
2018-08-23T23:44:56.969Z,23.40
2018-08-23T23:47:37.928Z,23.50
2018-08-23T23:50:18.579Z,23.30
2018-08-23T23:52:59.086Z,23.20
2018-08-23T23:55:39.639Z,23.00
2018-08-23T23:58:21.302Z,23.00
